Time;durP1;ratioP1;P1;durP2;ratioP2;P2;SDS_P1;SDS_P2;PMS_P1;PMS_P2;Temp;Humidity;BMP_temperature;BMP_pressure;BME280_temperature;BME280_humidity;BME280_pressure;Samples;Min_cycle;Max_cycle;Signal;HPM_P1;HPM_P2
2022/09/09 00:02:10;;;;;;;24.38;16.00;;;13.00;99.90;;;;;;5034038;28;20044;-81
2022/09/09 00:04:37;;;;;;;43.30;19.02;;;13.00;99.90;;;;;;5032820;28;20029;-81
2022/09/09 00:07:23;;;;;;;20.63;15.23;;;13.00;99.90;;;;;;5033945;28;20049;-81
2022/09/09 00:10:25;;;;;;;22.50;17.67;;;12.90;99.90;;;;;;5034892;28;20046;-81
2022/09/09 00:13:24;;;;;;;18.75;14.07;;;12.90;99.90;;;;;;5018954;28;20090;-81
2022/09/09 00:16:00;;;;;;;14.35;11.40;;;12.90;99.90;;;;;;5024249;28;20045;-81
2022/09/09 00:18:35;;;;;;;18.83;12.82;;;12.90;99.90;;;;;;5034420;28;20097;-81
2022/09/09 00:21:06;;;;;;;42.78;16.98;;;12.80;99.90;;;;;;5012969;28;20049;-81
2022/09/09 00:23:39;;;;;;;17.10;11.60;;;12.80;99.90;;;;;;5039650;28;20099;-81
2022/09/09 00:26:38;;;;;;;26.15;15.35;;;12.80;99.90;;;;;;5038444;28;20045;-81
2022/09/09 00:29:23;;;;;;;19.65;13.50;;;12.80;99.90;;;;;;5037712;28;20487;-81
2022/09/09 00:31:51;;;;;;;18.02;13.02;;;12.80;99.90;;;;;;5053495;28;20089;-81
2022/09/09 00:34:24;;;;;;;17.33;12.98;;;12.80;99.90;;;;;;5033408;28;20057;-81
2022/09/09 00:36:52;;;;;;;18.60;11.55;;;12.90;99.90;;;;;;5036401;28;20059;-81
2022/09/09 00:39:39;;;;;;;20.80;13.27;;;12.90;99.90;;;;;;5032303;28;20180;-81
2022/09/09 00:42:15;;;;;;;20.70;13.10;;;12.90;99.90;;;;;;5034062;28;20073;-81
2022/09/09 00:45:17;;;;;;;16.40;12.52;;;12.90;99.90;;;;;;5017178;28;20044;-81
2022/09/09 00:47:53;;;;;;;24.10;14.45;;;12.90;99.90;;;;;;5030283;28;20120;-81
2022/09/09 00:50:38;;;;;;;24.65;15.65;;;13.00;99.90;;;;;;5008547;28;20065;-82
2022/09/09 00:53:18;;;;;;;23.43;15.80;;;13.00;99.90;;;;;;5031461;28;20044;-82
2022/09/09 00:55:52;;;;;;;32.60;21.02;;;12.90;99.90;;;;;;5031461;28;20041;-81
2022/09/09 00:58:19;;;;;;;27.10;18.17;;;12.90;99.90;;;;;;5012430;28;20053;-82
2022/09/09 01:00:52;;;;;;;18.58;11.98;;;12.90;99.90;;;;;;5031557;28;20476;-82
2022/09/09 01:03:35;;;;;;;20.02;12.52;;;12.90;99.90;;;;;;5030925;28;20056;-81
2022/09/09 01:06:21;;;;;;;21.80;14.68;;;12.90;99.90;;;;;;5030959;28;20060;-82
2022/09/09 01:09:18;;;;;;;25.83;14.40;;;12.90;99.90;;;;;;5028838;28;20056;-82
2022/09/09 01:12:04;;;;;;;20.02;14.48;;;13.00;99.90;;;;;;5028434;28;20057;-82
2022/09/09 01:14:36;;;;;;;18.17;12.40;;;12.90;99.90;;;;;;5028743;28;20131;-82
2022/09/09 01:17:28;;;;;;;19.10;12.63;;;12.90;99.90;;;;;;5011884;28;20037;-81
2022/09/09 01:20:19;;;;;;;20.90;14.55;;;12.90;99.90;;;;;;5025579;28;20069;-80
2022/09/09 01:23:16;;;;;;;20.52;14.68;;;12.90;99.90;;;;;;5027181;28;20161;-80
2022/09/09 01:26:16;;;;;;;16.70;13.10;;;12.90;99.90;;;;;;5026064;28;20037;-80
2022/09/09 01:28:52;;;;;;;29.23;19.25;;;12.90;99.90;;;;;;5001420;28;20038;-80
2022/09/09 01:31:41;;;;;;;18.13;11.98;;;12.80;99.90;;;;;;5025915;28;20120;-80
2022/09/09 01:34:15;;;;;;;16.33;12.90;;;12.80;99.90;;;;;;5026639;28;20041;-80
2022/09/09 01:37:02;;;;;;;16.67;11.77;;;12.70;99.90;;;;;;5026473;28;20048;-80
2022/09/09 01:39:28;;;;;;;17.08;11.13;;;12.70;99.90;;;;;;5025239;28;20052;-80
2022/09/09 01:41:55;;;;;;;21.88;13.23;;;12.70;99.90;;;;;;5028274;28;20041;-80
2022/09/09 01:44:22;;;;;;;21.55;12.77;;;12.70;99.90;;;;;;5026748;28;20099;-80
2022/09/09 01:46:47;;;;;;;21.40;14.27;;;12.80;99.90;;;;;;5023020;28;20048;-79
2022/09/09 01:49:13;;;;;;;21.98;14.90;;;12.90;99.90;;;;;;5025575;28;20037;-80
2022/09/09 01:51:40;;;;;;;16.95;11.23;;;13.00;99.90;;;;;;5025269;28;20048;-80
2022/09/09 01:54:06;;;;;;;15.05;10.88;;;13.10;99.90;;;;;;5027164;28;20042;-80
2022/09/09 01:56:46;;;;;;;19.30;10.82;;;13.10;99.90;;;;;;5027267;28;20073;-80
2022/09/09 01:59:24;;;;;;;19.35;10.43;;;13.20;99.90;;;;;;5027009;28;20061;-80
2022/09/09 02:02:10;;;;;;;17.55;10.63;;;13.20;99.90;;;;;;5026577;28;20041;-80
2022/09/09 02:04:50;;;;;;;19.10;10.68;;;13.30;99.90;;;;;;5026598;28;20041;-80
2022/09/09 02:07:42;;;;;;;20.33;9.95;;;13.40;99.90;;;;;;5026464;28;20052;-80
2022/09/09 02:10:14;;;;;;;13.13;10.13;;;13.40;99.90;;;;;;5033079;28;20073;-80
2022/09/09 02:12:45;;;;;;;15.70;10.40;;;13.50;99.90;;;;;;5010083;28;20048;-80
2022/09/09 02:15:23;;;;;;;15.65;10.10;;;13.60;99.90;;;;;;5026347;28;20047;-80
2022/09/09 02:17:51;;;;;;;15.90;9.40;;;13.60;99.90;;;;;;5023066;28;20037;-79
2022/09/09 02:20:19;;;;;;;15.55;9.57;;;13.60;99.90;;;;;;5024293;28;20095;-79
2022/09/09 02:22:49;;;;;;;15.68;10.07;;;13.70;99.90;;;;;;5025685;28;20356;-79
2022/09/09 02:25:18;;;;;;;14.63;9.10;;;13.70;99.90;;;;;;5006521;28;20344;-79
2022/09/09 02:27:47;;;;;;;19.08;10.63;;;13.80;99.90;;;;;;5024694;28;20034;-79
2022/09/09 02:30:14;;;;;;;16.75;10.50;;;13.90;99.90;;;;;;5026893;28;20076;-80
2022/09/09 02:32:42;;;;;;;13.45;9.57;;;13.90;99.90;;;;;;5023713;28;20068;-79
2022/09/09 02:35:14;;;;;;;16.75;9.77;;;13.90;99.90;;;;;;5009986;28;20155;-79
2022/09/09 02:37:42;;;;;;;12.38;8.82;;;14.00;99.90;;;;;;5010445;28;20046;-80
2022/09/09 02:40:10;;;;;;;16.67;10.02;;;14.00;99.90;;;;;;5024133;28;20038;-79
2022/09/09 02:42:45;;;;;;;16.27;9.40;;;14.10;99.90;;;;;;5030283;28;20064;-79
2022/09/09 02:45:13;;;;;;;16.42;11.05;;;14.10;99.90;;;;;;5026420;28;20064;-79
2022/09/09 02:47:46;;;;;;;18.52;8.93;;;14.10;99.90;;;;;;5012526;28;20029;-79
2022/09/09 02:50:15;;;;;;;12.48;9.57;;;14.20;99.90;;;;;;5030945;28;20037;-81
2022/09/09 02:53:02;;;;;;;11.25;8.45;;;14.20;99.90;;;;;;5030427;28;20065;-79
2022/09/09 02:55:49;;;;;;;15.85;9.27;;;14.30;99.90;;;;;;5026739;28;20041;-79
2022/09/09 02:58:17;;;;;;;12.43;8.90;;;14.30;99.90;;;;;;5029913;28;20092;-80
2022/09/09 03:00:48;;;;;;;12.20;9.35;;;14.40;99.90;;;;;;5030072;28;20034;-79
2022/09/09 03:03:15;;;;;;;12.85;8.20;;;14.30;99.90;;;;;;5028315;28;20041;-79
2022/09/09 03:05:41;;;;;;;14.70;8.55;;;14.40;99.90;;;;;;5029452;28;20045;-79
2022/09/09 03:08:07;;;;;;;16.98;8.60;;;14.40;99.90;;;;;;5027253;28;20040;-79
2022/09/09 03:10:33;;;;;;;14.27;7.15;;;14.40;99.90;;;;;;5029825;28;20045;-79
2022/09/09 03:12:59;;;;;;;11.90;8.15;;;14.40;99.90;;;;;;5029218;28;20097;-79
2022/09/09 03:15:28;;;;;;;12.65;8.30;;;14.40;99.90;;;;;;5027423;28;20065;-79
2022/09/09 03:17:55;;;;;;;15.15;9.88;;;14.40;99.90;;;;;;5026157;28;20132;-79
2022/09/09 03:20:20;;;;;;;11.52;9.15;;;14.40;99.90;;;;;;5028068;28;20049;-79
2022/09/09 03:22:46;;;;;;;11.73;8.15;;;14.40;99.90;;;;;;5028817;28;20069;-79
2022/09/09 03:25:11;;;;;;;13.18;10.02;;;14.40;99.90;;;;;;5034934;28;20519;-80
2022/09/09 03:27:37;;;;;;;15.23;8.50;;;14.40;99.90;;;;;;5022861;28;20040;-81
2022/09/09 03:30:03;;;;;;;14.60;8.63;;;14.40;99.90;;;;;;5028442;28;20030;-81
2022/09/09 03:32:29;;;;;;;14.15;9.38;;;14.40;99.90;;;;;;5046020;28;20033;-80
2022/09/09 03:34:54;;;;;;;11.63;8.35;;;14.40;99.90;;;;;;5042653;28;20045;-82
2022/09/09 03:37:20;;;;;;;15.23;10.70;;;14.40;99.90;;;;;;5040134;28;20041;-82
2022/09/09 03:39:45;;;;;;;15.48;11.90;;;14.40;99.90;;;;;;5039152;28;20064;-82
2022/09/09 03:42:18;;;;;;;17.40;9.60;;;14.30;99.90;;;;;;5023021;28;20037;-82
2022/09/09 03:44:49;;;;;;;14.40;10.00;;;14.30;99.90;;;;;;5039200;28;20438;-81
2022/09/09 03:47:18;;;;;;;16.75;9.10;;;14.40;99.90;;;;;;5040264;28;20061;-82
2022/09/09 03:49:44;;;;;;;13.73;9.10;;;14.40;99.90;;;;;;5040973;28;20312;-80
2022/09/09 03:52:10;;;;;;;15.07;8.85;;;14.30;99.90;;;;;;5043698;28;20040;-80
2022/09/09 03:54:35;;;;;;;11.18;7.30;;;14.40;99.90;;;;;;5027547;28;20041;-81
2022/09/09 03:57:02;;;;;;;11.05;8.27;;;14.30;99.90;;;;;;5029944;28;20045;-78
2022/09/09 03:59:27;;;;;;;12.05;9.02;;;14.40;99.90;;;;;;5025104;28;20264;-78
2022/09/09 04:01:54;;;;;;;11.80;8.57;;;14.30;99.90;;;;;;5025811;28;20119;-78
2022/09/09 04:04:20;;;;;;;11.75;7.25;;;14.30;99.90;;;;;;5024706;28;20683;-79
2022/09/09 04:06:46;;;;;;;12.48;9.43;;;14.40;99.90;;;;;;5026349;28;20043;-79
2022/09/09 04:09:12;;;;;;;12.73;7.97;;;14.30;99.90;;;;;;5026234;28;20072;-78
2022/09/09 04:11:37;;;;;;;14.32;8.35;;;14.30;99.90;;;;;;5027018;28;20080;-79
2022/09/09 04:14:05;;;;;;;9.73;7.53;;;14.30;99.90;;;;;;5025745;28;20124;-79
2022/09/09 04:16:32;;;;;;;11.57;8.00;;;14.30;99.90;;;;;;5024411;28;20400;-79
2022/09/09 04:18:59;;;;;;;12.02;8.38;;;14.30;99.90;;;;;;5024914;28;20080;-78
2022/09/09 04:21:25;;;;;;;13.05;7.57;;;14.30;99.90;;;;;;5025936;28;20065;-78
2022/09/09 04:23:51;;;;;;;8.85;5.68;;;14.30;99.90;;;;;;5026295;28;20123;-78
2022/09/09 04:26:17;;;;;;;11.07;6.15;;;14.20;99.90;;;;;;5024456;28;20171;-79
2022/09/09 04:28:42;;;;;;;10.63;5.72;;;14.20;99.90;;;;;;5028058;28;20403;-78
2022/09/09 04:31:12;;;;;;;11.20;4.88;;;14.20;99.90;;;;;;5024817;28;20047;-78
2022/09/09 04:33:39;;;;;;;7.88;5.00;;;14.20;99.90;;;;;;5025674;28;20120;-77
2022/09/09 04:36:05;;;;;;;8.52;5.47;;;14.20;99.90;;;;;;5024125;28;20045;-79
2022/09/09 04:38:30;;;;;;;8.95;4.93;;;14.20;99.90;;;;;;5025752;28;20522;-78
2022/09/09 04:40:56;;;;;;;7.70;5.05;;;14.20;99.90;;;;;;5025233;28;20038;-79
2022/09/09 04:43:22;;;;;;;10.73;6.03;;;14.20;99.90;;;;;;5024037;28;20070;-78
2022/09/09 04:45:50;;;;;;;5.40;4.10;;;14.20;99.90;;;;;;5023682;28;20052;-79
2022/09/09 04:48:16;;;;;;;9.38;5.88;;;14.20;99.90;;;;;;5025838;28;20044;-78
2022/09/09 04:50:42;;;;;;;8.40;4.88;;;14.20;99.90;;;;;;5025766;28;20038;-79
2022/09/09 04:53:07;;;;;;;9.63;5.32;;;14.20;99.90;;;;;;5025266;28;20072;-79
2022/09/09 04:55:34;;;;;;;9.07;7.03;;;14.10;99.90;;;;;;5025816;28;20136;-78
2022/09/09 04:58:08;;;;;;;9.93;7.05;;;14.10;99.90;;;;;;5024649;28;20056;-79
2022/09/09 05:00:35;;;;;;;10.45;6.93;;;14.10;99.90;;;;;;5023986;28;20037;-79
2022/09/09 05:03:05;;;;;;;11.88;7.05;;;14.10;99.90;;;;;;5024428;28;20068;-79
2022/09/09 05:05:31;;;;;;;10.02;6.43;;;14.20;99.90;;;;;;5021040;28;20041;-79
2022/09/09 05:08:08;;;;;;;11.38;7.45;;;14.10;99.90;;;;;;5023733;28;20044;-79
2022/09/09 05:10:36;;;;;;;8.90;6.32;;;14.10;99.90;;;;;;5024227;28;20415;-79
2022/09/09 05:13:02;;;;;;;14.65;8.23;;;14.10;99.90;;;;;;5025432;28;20042;-80
2022/09/09 05:15:27;;;;;;;14.70;7.90;;;14.10;99.90;;;;;;5026152;28;20051;-80
2022/09/09 05:17:57;;;;;;;13.85;8.57;;;14.10;99.90;;;;;;5025353;28;20128;-80
2022/09/09 05:20:23;;;;;;;14.32;7.90;;;14.10;99.90;;;;;;5026687;28;20038;-80
2022/09/09 05:22:56;;;;;;;11.27;8.00;;;14.10;99.90;;;;;;5025326;28;20064;-80
2022/09/09 05:25:24;;;;;;;11.45;7.75;;;14.10;99.90;;;;;;5026186;28;20088;-80
2022/09/09 05:27:49;;;;;;;10.23;7.38;;;14.10;99.90;;;;;;5026888;28;20037;-80
2022/09/09 05:30:15;;;;;;;12.48;8.02;;;14.10;99.90;;;;;;5024885;28;20041;-80
2022/09/09 05:32:41;;;;;;;14.20;8.60;;;14.10;99.90;;;;;;5024169;28;20034;-80
2022/09/09 05:35:07;;;;;;;11.35;8.32;;;14.10;99.90;;;;;;5049645;23;20551;-79
2022/09/09 05:37:32;;;;;;;11.82;7.78;;;14.20;99.90;;;;;;5036481;28;20068;-79
2022/09/09 05:39:58;;;;;;;12.93;7.70;;;14.20;99.90;;;;;;5034689;28;20044;-79
2022/09/09 05:42:24;;;;;;;11.13;7.20;;;14.20;99.90;;;;;;5041470;28;20124;-79
2022/09/09 05:44:50;;;;;;;11.18;7.28;;;14.20;99.90;;;;;;5024878;28;20136;-79
2022/09/09 05:47:17;;;;;;;11.10;7.93;;;14.20;99.90;;;;;;5015187;28;20437;-80
2022/09/09 05:49:42;;;;;;;12.52;6.60;;;14.30;99.90;;;;;;5013045;28;20037;-80
2022/09/09 05:52:09;;;;;;;10.80;7.35;;;14.30;99.90;;;;;;5030732;28;20045;-80
2022/09/09 05:54:35;;;;;;;11.05;7.28;;;14.30;99.90;;;;;;5011991;28;20106;-80
2022/09/09 05:57:01;;;;;;;11.63;7.15;;;14.30;99.90;;;;;;5027960;28;20060;-80
2022/09/09 05:59:27;;;;;;;10.23;7.65;;;14.30;99.90;;;;;;5005800;28;20034;-80
2022/09/09 06:01:54;;;;;;;12.75;7.93;;;14.40;99.90;;;;;;5032297;28;20048;-80
2022/09/09 06:04:22;;;;;;;9.27;6.47;;;14.40;99.90;;;;;;5022318;28;20397;-80
2022/09/09 06:06:48;;;;;;;8.40;6.75;;;14.40;99.90;;;;;;5014480;28;20048;-80
2022/09/09 06:09:15;;;;;;;9.93;5.45;;;14.40;99.90;;;;;;5024515;28;20117;-80
2022/09/09 06:11:41;;;;;;;7.97;5.90;;;14.50;99.90;;;;;;5031788;28;20045;-80
2022/09/09 06:14:07;;;;;;;10.07;6.38;;;14.50;99.90;;;;;;5036941;28;20175;-80
2022/09/09 06:16:33;;;;;;;9.23;5.93;;;14.60;99.90;;;;;;5024622;28;20033;-80
2022/09/09 06:18:59;;;;;;;9.82;6.70;;;14.60;99.90;;;;;;5030705;28;20458;-80
2022/09/09 06:21:36;;;;;;;7.82;5.72;;;14.70;99.90;;;;;;5029951;28;20029;-80
2022/09/09 06:24:02;;;;;;;8.30;6.00;;;14.70;99.90;;;;;;5030603;28;20511;-80
2022/09/09 06:26:31;;;;;;;8.30;5.78;;;14.70;99.90;;;;;;5031247;28;20037;-80
2022/09/09 06:29:00;;;;;;;5.95;4.22;;;14.70;99.90;;;;;;5029027;28;20046;-80
2022/09/09 06:31:30;;;;;;;8.63;5.63;;;14.80;99.90;;;;;;5029113;28;20052;-80
2022/09/09 06:33:56;;;;;;;8.50;5.40;;;14.80;99.90;;;;;;5014462;28;20041;-80
2022/09/09 06:36:28;;;;;;;8.75;5.55;;;14.90;99.90;;;;;;5028675;28;20042;-80
2022/09/09 06:38:54;;;;;;;10.57;5.43;;;15.00;99.90;;;;;;5006502;28;20050;-80
2022/09/09 06:41:22;;;;;;;10.75;6.20;;;15.10;99.90;;;;;;5027707;28;20030;-80
2022/09/09 06:43:48;;;;;;;10.55;6.25;;;15.20;99.90;;;;;;5016588;28;20089;-80
2022/09/09 06:46:19;;;;;;;6.47;4.38;;;15.30;99.90;;;;;;5015339;28;20041;-80
2022/09/09 06:48:45;;;;;;;5.93;3.90;;;15.40;99.90;;;;;;5013025;28;20089;-80
2022/09/09 06:51:18;;;;;;;5.20;3.80;;;15.50;99.90;;;;;;5028097;28;20132;-80
2022/09/09 06:53:46;;;;;;;8.13;5.65;;;15.60;99.90;;;;;;5020883;28;20045;-80
2022/09/09 06:56:17;;;;;;;5.63;4.45;;;15.60;99.90;;;;;;5031246;28;20088;-80
2022/09/09 06:58:44;;;;;;;7.60;3.95;;;15.70;99.90;;;;;;5023572;28;20386;-80
2022/09/09 07:01:14;;;;;;;6.05;4.40;;;15.80;99.90;;;;;;5002552;28;20121;-80
2022/09/09 07:03:41;;;;;;;8.95;4.57;;;15.80;99.90;;;;;;5009743;28;20042;-80
2022/09/09 07:06:13;;;;;;;5.78;4.63;;;15.90;99.90;;;;;;5021439;28;20094;-80
2022/09/09 07:08:42;;;;;;;6.55;4.20;;;16.00;99.90;;;;;;5021903;28;20045;-80
2022/09/09 07:11:08;;;;;;;7.35;4.18;;;16.00;99.90;;;;;;4995854;28;20057;-81
2022/09/09 07:13:35;;;;;;;7.50;3.78;;;16.10;99.90;;;;;;5026300;28;20447;-81
2022/09/09 07:16:06;;;;;;;6.00;4.60;;;16.10;99.90;;;;;;5014868;28;20092;-80
2022/09/09 07:18:31;;;;;;;7.50;3.90;;;16.30;99.90;;;;;;5026580;28;20042;-80
2022/09/09 07:20:57;;;;;;;6.72;3.58;;;16.30;99.90;;;;;;5025454;28;20045;-80
2022/09/09 07:23:23;;;;;;;6.88;4.13;;;16.40;99.90;;;;;;5017881;28;20038;-80
2022/09/09 07:25:50;;;;;;;4.38;3.63;;;16.50;99.90;;;;;;5027342;28;20042;-80
2022/09/09 07:28:16;;;;;;;6.70;3.58;;;16.60;99.90;;;;;;5012188;28;20124;-80
2022/09/09 07:30:42;;;;;;;4.75;3.15;;;16.70;99.90;;;;;;5019561;28;20030;-80
2022/09/09 07:33:09;;;;;;;5.03;3.33;;;16.70;99.90;;;;;;5012990;28;20093;-80
2022/09/09 07:35:36;;;;;;;3.92;3.45;;;16.80;99.90;;;;;;5016201;28;20125;-79
2022/09/09 07:38:06;;;;;;;7.72;3.78;;;16.80;99.90;;;;;;5018534;28;20041;-79
2022/09/09 07:40:33;;;;;;;6.28;2.92;;;16.80;99.90;;;;;;5017671;28;20038;-79
2022/09/09 07:42:59;;;;;;;4.18;3.35;;;16.90;99.90;;;;;;5017845;28;20034;-78
2022/09/09 07:45:28;;;;;;;5.47;2.97;;;16.90;99.90;;;;;;4982434;28;20129;-78
2022/09/09 07:47:56;;;;;;;5.00;3.25;;;17.00;99.90;;;;;;5045414;28;20042;-79
2022/09/09 07:50:23;;;;;;;5.60;2.85;;;17.30;99.90;;;;;;5030995;28;20117;-78
2022/09/09 07:52:49;;;;;;;4.03;2.90;;;17.70;99.90;;;;;;5014906;28;20053;-78
2022/09/09 07:55:15;;;;;;;4.63;2.53;;;18.00;99.90;;;;;;5045516;28;20050;-78
2022/09/09 07:57:40;;;;;;;41.45;26.42;;;18.20;99.90;;;;;;5035290;28;20053;-79
2022/09/09 08:00:06;;;;;;;9.65;3.60;;;18.30;99.90;;;;;;5042457;28;20069;-79
2022/09/09 08:02:32;;;;;;;34.95;25.92;;;18.40;99.90;;;;;;5025320;28;20052;-80
2022/09/09 08:04:57;;;;;;;37.90;25.23;;;18.70;99.90;;;;;;5020992;28;20049;-79
2022/09/09 08:07:24;;;;;;;12.25;8.90;;;19.00;99.90;;;;;;5026898;28;20080;-79
2022/09/09 08:09:49;;;;;;;40.00;30.92;;;19.30;99.90;;;;;;5024116;28;20056;-79
2022/09/09 08:12:16;;;;;;;9.35;5.60;;;19.40;99.90;;;;;;5025027;28;20041;-80
2022/09/09 08:14:41;;;;;;;11.65;8.32;;;19.50;99.90;;;;;;5028610;28;20069;-80
2022/09/09 08:17:07;;;;;;;8.32;4.38;;;19.70;99.90;;;;;;5023270;28;20072;-78
2022/09/09 08:19:35;;;;;;;4.05;2.92;;;19.70;99.90;;;;;;5025621;28;20073;-79
2022/09/09 08:22:02;;;;;;;7.00;2.50;;;19.70;99.90;;;;;;5027520;28;20052;-78
2022/09/09 08:24:28;;;;;;;7.15;2.53;;;19.70;99.90;;;;;;5034067;28;20049;-78
2022/09/09 08:26:53;;;;;;;5.95;2.33;;;19.80;99.90;;;;;;5017072;28;20453;-78
2022/09/09 08:29:20;;;;;;;3.47;1.55;;;20.00;99.90;;;;;;5017289;28;20076;-78
2022/09/09 08:31:46;;;;;;;3.53;2.08;;;20.20;99.90;;;;;;5018193;28;20063;-78
2022/09/09 08:34:13;;;;;;;3.58;1.67;;;20.40;99.90;;;;;;4999856;28;20045;-78
2022/09/09 08:36:42;;;;;;;7.20;2.25;;;20.50;99.90;;;;;;5000114;28;20385;-78
2022/09/09 08:39:09;;;;;;;4.45;1.88;;;20.70;99.90;;;;;;5014581;28;20069;-77
2022/09/09 08:42:05;;;;;;;4.50;1.88;;;20.80;99.90;;;;;;5014994;28;20038;-78
2022/09/09 08:44:33;;;;;;;;;;;21.10;99.90;;;;;;5025174;28;20042;-78
2022/09/09 08:47:32;;;;;;;3.85;2.03;;;21.40;99.90;;;;;;5013316;28;19987;-77
2022/09/09 08:50:24;;;;;;;3.90;1.67;;;21.70;99.90;;;;;;5009397;28;20125;-77
2022/09/09 08:53:16;;;;;;;3.72;1.75;;;22.10;99.90;;;;;;4994058;28;20053;-77
2022/09/09 08:55:59;;;;;;;2.50;1.17;;;22.50;99.90;;;;;;5008123;28;20049;-78
2022/09/09 08:58:29;;;;;;;5.50;1.83;;;22.50;99.90;;;;;;5015114;28;20037;-77
2022/09/09 09:01:21;;;;;;;5.30;1.95;;;22.30;99.90;;;;;;5019639;28;20093;-77
2022/09/09 09:04:11;;;;;;;3.83;1.42;;;22.20;99.90;;;;;;5017924;28;20472;-78
2022/09/09 09:06:49;;;;;;;2.70;1.70;;;22.00;99.90;;;;;;4997418;28;20041;-78
2022/09/09 09:09:30;;;;;;;4.97;1.80;;;22.00;99.90;;;;;;5015394;28;20108;-78
2022/09/09 09:12:01;;;;;;;3.90;1.85;;;22.00;99.90;;;;;;5019734;28;20041;-78
2022/09/09 09:14:33;;;;;;;3.72;1.35;;;21.90;99.90;;;;;;5019070;28;20049;-77
2022/09/09 09:17:09;;;;;;;7.55;2.00;;;21.80;99.90;;;;;;4998621;28;20045;-78
2022/09/09 09:19:37;;;;;;;4.95;1.60;;;21.60;99.90;;;;;;5018504;28;20049;-78
2022/09/09 09:22:15;;;;;;;3.42;1.38;;;21.30;99.90;;;;;;5016735;28;20046;-77
2022/09/09 09:25:16;;;;;;;6.22;1.77;;;21.10;99.90;;;;;;5030747;28;20503;-78
2022/09/09 09:27:54;;;;;;;5.82;1.50;;;21.00;99.90;;;;;;5010453;28;20065;-78
2022/09/09 09:30:26;;;;;;;176.48;136.10;;;20.90;99.90;;;;;;5010988;28;20116;-78
2022/09/09 09:33:06;;;;;;;26.27;19.13;;;20.80;99.90;;;;;;5011475;28;20077;-77
2022/09/09 09:35:32;;;;;;;155.55;120.00;;;20.80;99.90;;;;;;5013528;28;20042;-78
2022/09/09 09:38:00;;;;;;;15.57;9.70;;;20.80;99.90;;;;;;5020785;28;20060;-77
2022/09/09 09:40:26;;;;;;;46.20;32.33;;;20.80;99.90;;;;;;5019960;28;20034;-78
2022/09/09 09:42:55;;;;;;;39.05;25.00;;;20.70;99.90;;;;;;5017946;28;20060;-78
2022/09/09 09:45:45;;;;;;;14.88;9.95;;;20.70;99.90;;;;;;5016494;28;20034;-77
2022/09/09 09:48:13;;;;;;;10.02;6.68;;;20.80;99.90;;;;;;5012603;28;20096;-77
2022/09/09 09:51:00;;;;;;;8.40;2.60;;;20.90;99.90;;;;;;5016572;28;20052;-77
2022/09/09 09:53:28;;;;;;;5.68;1.80;;;21.00;99.90;;;;;;5019541;28;20044;-77
2022/09/09 09:56:01;;;;;;;9.27;1.33;;;21.10;99.90;;;;;;5012446;28;20113;-77
2022/09/09 09:58:32;;;;;;;6.50;1.52;;;21.40;99.90;;;;;;5008621;28;20081;-77
2022/09/09 10:00:59;;;;;;;7.97;1.20;;;21.70;99.90;;;;;;5020100;28;20045;-78
2022/09/09 10:03:38;;;;;;;5.57;1.15;;;22.00;99.90;;;;;;5013380;28;20052;-77
2022/09/09 10:06:04;;;;;;;6.50;1.10;;;22.30;99.90;;;;;;5032465;28;20061;-77
2022/09/09 10:08:45;;;;;;;9.90;2.20;;;22.70;99.90;;;;;;5019542;28;20483;-77
2022/09/09 10:11:26;;;;;;;2.28;0.77;;;22.80;99.90;;;;;;5016749;28;20130;-77
2022/09/09 10:14:17;;;;;;;4.50;0.93;;;22.70;99.90;;;;;;5029368;28;20093;-77
2022/09/09 10:16:59;;;;;;;4.93;0.90;;;22.40;99.90;;;;;;5010795;28;20065;-77
2022/09/09 10:19:33;;;;;;;7.25;1.88;;;22.40;99.90;;;;;;5002425;28;20045;-78
2022/09/09 10:22:31;;;;;;;36.92;26.10;;;22.70;99.90;;;;;;5008139;28;20116;-78
2022/09/09 10:25:21;;;;;;;42.67;29.27;;;23.00;99.90;;;;;;5003235;28;20416;-78
2022/09/09 10:28:12;;;;;;;59.70;40.17;;;23.20;99.90;;;;;;5011105;28;20046;-77
2022/09/09 10:30:56;;;;;;;12.75;5.75;;;23.30;99.90;;;;;;5011922;28;20086;-77
2022/09/09 10:33:27;;;;;;;30.05;18.75;;;23.40;99.90;;;;;;5012403;28;20038;-77
2022/09/09 10:36:13;;;;;;;95.93;85.50;;;23.60;99.90;;;;;;5010548;28;20049;-77
2022/09/09 10:38:45;;;;;;;3.97;1.98;;;23.60;99.90;;;;;;4992489;28;20042;-77
2022/09/09 10:41:44;;;;;;;4.60;0.73;;;23.70;99.90;;;;;;5003793;28;20088;-77
2022/09/09 10:45:06;;;;;;;3.33;0.77;;;23.50;99.90;;;;;;5011549;28;20040;-77
2022/09/09 10:47:53;;;;;;;4.88;0.50;;;23.30;99.90;;;;;;4973394;28;20042;-77
2022/09/09 10:50:50;;;;;;;5.20;0.50;;;23.00;99.90;;;;;;4973433;28;20160;-77
2022/09/09 10:53:31;;;;;;;5.80;0.70;;;22.80;99.90;;;;;;4991319;28;20516;-77
2022/09/09 10:56:04;;;;;;;4.75;0.80;;;23.00;99.90;;;;;;5008144;28;20046;-77
2022/09/09 10:58:41;;;;;;;2.50;0.38;;;23.50;99.90;;;;;;5009891;28;20096;-77
2022/09/09 11:01:18;;;;;;;3.92;0.50;;;24.00;99.90;;;;;;5020559;28;20515;-76
2022/09/09 11:03:51;;;;;;;4.57;0.70;;;24.00;99.90;;;;;;5016244;28;20030;-77
2022/09/09 11:06:21;;;;;;;1.80;0.80;;;23.60;99.90;;;;;;5016015;28;20401;-77
2022/09/09 11:08:49;;;;;;;4.40;0.60;;;23.20;99.90;;;;;;4999818;28;20081;-77
2022/09/09 11:11:18;;;;;;;5.07;0.50;;;22.80;99.90;;;;;;4997976;28;20041;-77
2022/09/09 11:14:05;;;;;;;4.75;0.57;;;22.80;99.90;;;;;;5015181;28;20104;-76
2022/09/09 11:16:38;;;;;;;5.18;0.93;;;23.10;99.90;;;;;;5016726;28;21084;-76
2022/09/09 11:19:21;;;;;;;4.00;1.20;;;23.70;99.90;;;;;;5019890;28;20273;-76
2022/09/09 11:21:53;;;;;;;4.20;0.70;;;23.80;99.90;;;;;;5015273;28;20045;-76
2022/09/09 11:24:26;;;;;;;2.17;0.63;;;23.60;99.90;;;;;;5018611;28;20096;-76
2022/09/09 11:26:57;;;;;;;6.15;0.90;;;23.30;99.90;;;;;;5016526;28;20077;-77
2022/09/09 11:29:40;;;;;;;3.97;0.43;;;23.00;99.90;;;;;;5013587;28;20042;-77
2022/09/09 11:32:24;;;;;;;5.78;0.70;;;22.80;99.90;;;;;;5013440;28;20134;-75
2022/09/09 11:35:08;;;;;;;3.03;0.57;;;22.80;99.90;;;;;;5025028;22;20050;-79
2022/09/09 11:37:59;;;;;;;5.57;0.98;;;22.90;99.90;;;;;;5001937;28;20051;-80
2022/09/09 11:40:27;;;;;;;2.53;0.65;;;23.10;99.90;;;;;;4998749;28;20089;-81
2022/09/09 11:43:05;;;;;;;4.57;0.85;;;23.40;99.90;;;;;;4998578;28;20529;-81
2022/09/09 11:45:33;;;;;;;3.08;0.30;;;23.50;99.90;;;;;;4998909;28;20038;-81
2022/09/09 11:48:01;;;;;;;2.53;0.30;;;23.50;99.90;;;;;;4999247;28;20657;-81
2022/09/09 11:50:34;;;;;;;3.88;0.40;;;23.40;99.90;;;;;;4999298;28;20045;-81
2022/09/09 11:53:22;;;;;;;5.47;0.70;;;23.40;99.90;;;;;;4998520;28;20043;-81
2022/09/09 11:56:00;;;;;;;3.17;0.30;;;23.40;99.90;;;;;;4997640;28;20042;-81
2022/09/09 11:58:32;;;;;;;2.65;0.60;;;23.40;99.90;;;;;;4998333;28;20050;-82
2022/09/09 12:00:58;;;;;;;1.83;0.30;;;23.20;99.90;;;;;;4996451;28;20039;-81
2022/09/09 12:04:17;;;;;;;4.35;0.45;;;23.10;99.90;;;;;;4998431;28;20169;-80
2022/09/09 12:06:53;;;;;;;2.60;0.80;;;23.10;99.90;;;;;;4942427;29;20553;-81
2022/09/09 12:09:29;;;;;;;1.83;0.47;;;22.90;99.90;;;;;;4995880;28;20062;-80
2022/09/09 12:12:12;;;;;;;3.60;0.28;;;23.10;99.90;;;;;;4979051;28;20042;-80
2022/09/09 12:14:43;;;;;;;3.20;0.40;;;23.40;99.90;;;;;;4984556;28;20053;-79
2022/09/09 12:17:24;;;;;;;4.18;0.47;;;23.60;99.90;;;;;;4956839;28;20104;-80
2022/09/09 12:20:08;;;;;;;5.07;0.73;;;23.50;99.90;;;;;;4977972;28;20046;-80
2022/09/09 12:22:36;;;;;;;2.60;0.30;;;23.30;99.90;;;;;;5004404;28;20104;-79
2022/09/09 12:25:31;;;;;;;2.35;0.50;;;23.10;99.90;;;;;;4992320;28;20061;-79
2022/09/09 12:28:15;;;;;;;2.07;0.40;;;23.10;99.90;;;;;;4982301;28;20046;-77
2022/09/09 12:30:53;;;;;;;3.78;0.45;;;23.20;99.90;;;;;;4995418;28;20043;-80
2022/09/09 12:33:19;;;;;;;6.20;0.50;;;23.70;99.90;;;;;;5002661;28;20078;-80
2022/09/09 12:35:51;;;;;;;4.25;0.30;;;24.50;99.90;;;;;;5020470;28;20090;-80
2022/09/09 12:38:32;;;;;;;2.70;0.50;;;25.20;99.90;;;;;;4999388;28;20484;-79
2022/09/09 12:40:58;;;;;;;5.07;0.85;;;25.90;99.90;;;;;;4996769;28;20051;-81
2022/09/09 12:43:26;;;;;;;3.88;0.57;;;26.00;99.90;;;;;;4998679;28;20046;-79
2022/09/09 12:45:58;;;;;;;4.38;1.00;;;25.80;99.90;;;;;;5000979;28;20048;-79
2022/09/09 12:48:45;;;;;;;4.68;0.63;;;25.90;99.90;;;;;;4999605;28;20053;-79
2022/09/09 12:51:24;;;;;;;2.15;0.65;;;26.10;99.90;;;;;;4996591;28;20057;-79
2022/09/09 12:53:51;;;;;;;2.33;0.28;;;26.30;99.90;;;;;;4976166;28;20504;-79
2022/09/09 12:56:22;;;;;;;1.77;0.30;;;26.30;99.90;;;;;;4994489;28;20066;-80
2022/09/09 12:58:51;;;;;;;3.83;0.63;;;26.10;99.90;;;;;;4993852;28;20521;-80
2022/09/09 13:01:31;;;;;;;1.83;0.20;;;26.10;99.90;;;;;;4995375;28;20051;-79
2022/09/09 13:03:57;;;;;;;1.80;0.20;;;26.20;99.90;;;;;;4984735;28;20047;-79
2022/09/09 13:06:31;;;;;;;4.22;0.57;;;26.60;99.90;;;;;;4981870;28;20442;-80
2022/09/09 13:09:01;;;;;;;1.55;0.32;;;26.90;99.90;;;;;;4978702;28;20058;-81
2022/09/09 13:11:36;;;;;;;1.63;0.40;;;26.70;98.50;;;;;;4980018;28;20043;-81